Terminal Aerodrome Forecast
Issued by NWS Charleston, WV

Current Version | Previous Version | Graphics & Text | Print | Product List | Glossary On
Versions: 1 2 3 4 5 6 7 8 9 10 11 12 13 14 15 16 17
000
FTUS41 KRLX 180200 AAA
TAFEKN
TAF AMD
KEKN 180213Z 1802/1824 15004KT P6SM SKC
     FM181000 00000KT 6SM BR SCT250
     FM181700 26004KT P6SM BKN150
     FM182000 31008KT P6SM BKN150=

USA.gov is the U.S. government's official web portal to all federal, state and local government web resources and services.